sensor_id;sensor_type;location;lat;lon;timestamp;pressure;altitude;pressure_sealevel;temperature;humidity
48874;BME280;66155;46.204;5.220;2023-07-24T00:00:28;98016.31;;;27.73;43.66
48874;BME280;66155;46.204;5.220;2023-07-24T00:05:29;98004.03;;;27.58;43.77
48874;BME280;66155;46.204;5.220;2023-07-24T00:10:29;97992.56;;;27.57;43.98
48874;BME280;66155;46.204;5.220;2023-07-24T00:15:30;97992.13;;;27.44;44.10
48874;BME280;66155;46.204;5.220;2023-07-24T00:20:30;98000.88;;;27.38;44.31
48874;BME280;66155;46.204;5.220;2023-07-24T00:25:31;97975.97;;;27.26;44.67
48874;BME280;66155;46.204;5.220;2023-07-24T00:30:31;97971.31;;;27.12;44.92
48874;BME280;66155;46.204;5.220;2023-07-24T00:35:31;97968.66;;;27.16;44.66
48874;BME280;66155;46.204;5.220;2023-07-24T00:40:32;97966.41;;;27.22;44.75
48874;BME280;66155;46.204;5.220;2023-07-24T00:45:32;97946.16;;;27.21;44.67
48874;BME280;66155;46.204;5.220;2023-07-24T00:50:33;97925.16;;;27.26;44.42
48874;BME280;66155;46.204;5.220;2023-07-24T00:55:33;97932.13;;;27.38;44.38
48874;BME280;66155;46.204;5.220;2023-07-24T01:00:34;97922.91;;;27.32;44.41
48874;BME280;66155;46.204;5.220;2023-07-24T01:05:34;97912.22;;;27.32;44.82
48874;BME280;66155;46.204;5.220;2023-07-24T01:10:35;97887.78;;;27.37;44.45
48874;BME280;66155;46.204;5.220;2023-07-24T01:15:44;97885.09;;;27.34;45.13
48874;BME280;66155;46.204;5.220;2023-07-24T01:20:50;97895.69;;;27.16;45.04
48874;BME280;66155;46.204;5.220;2023-07-24T01:25:55;97902.56;;;27.09;45.00
48874;BME280;66155;46.204;5.220;2023-07-24T01:30:56;97889.56;;;27.04;44.99
48874;BME280;66155;46.204;5.220;2023-07-24T01:35:59;97956.38;;;27.04;44.80
48874;BME280;66155;46.204;5.220;2023-07-24T01:41:01;97968.53;;;26.91;45.10
48874;BME280;66155;46.204;5.220;2023-07-24T01:46:01;98042.88;;;26.74;45.58
48874;BME280;66155;46.204;5.220;2023-07-24T01:51:01;98182.41;;;22.07;100.00
48874;BME280;66155;46.204;5.220;2023-07-24T01:56:02;98065.91;;;20.41;100.00
48874;BME280;66155;46.204;5.220;2023-07-24T02:01:03;97970.53;;;18.99;100.00
48874;BME280;66155;46.204;5.220;2023-07-24T02:06:03;98071.03;;;20.25;100.00
48874;BME280;66155;46.204;5.220;2023-07-24T02:11:04;97994.88;;;19.98;100.00
48874;BME280;66155;46.204;5.220;2023-07-24T02:16:04;97914.19;;;19.79;100.00
48874;BME280;66155;46.204;5.220;2023-07-24T02:21:05;98074.13;;;20.27;100.00
48874;BME280;66155;46.204;5.220;2023-07-24T02:26:05;98128.28;;;20.42;100.00
48874;BME280;66155;46.204;5.220;2023-07-24T02:31:57;97963.84;;;20.65;100.00
48874;BME280;66155;46.204;5.220;2023-07-24T02:37:56;64413.28;;;-144.50;100.00
48874;BME280;66155;46.204;5.220;2023-07-24T02:43:55;64413.28;;;-144.50;100.00
48874;BME280;66155;46.204;5.220;2023-07-24T02:49:54;64413.28;;;-144.50;100.00
48874;BME280;66155;46.204;5.220;2023-07-24T02:55:53;64413.28;;;-144.50;100.00
48874;BME280;66155;46.204;5.220;2023-07-24T03:01:52;64413.28;;;-144.50;100.00
48874;BME280;66155;46.204;5.220;2023-07-24T03:07:51;64413.28;;;-144.50;100.00
48874;BME280;66155;46.204;5.220;2023-07-24T03:13:50;64413.28;;;-144.50;100.00
48874;BME280;66155;46.204;5.220;2023-07-24T03:19:49;64413.28;;;-144.50;100.00
48874;BME280;66155;46.204;5.220;2023-07-24T03:25:48;64413.28;;;-144.50;100.00
48874;BME280;66155;46.204;5.220;2023-07-24T03:31:47;64413.28;;;-144.50;100.00
48874;BME280;66155;46.204;5.220;2023-07-24T03:37:46;64413.28;;;-144.50;100.00
48874;BME280;66155;46.204;5.220;2023-07-24T03:43:45;64413.28;;;-144.50;100.00
48874;BME280;66155;46.204;5.220;2023-07-24T03:49:43;64413.28;;;-144.50;100.00
48874;BME280;66155;46.204;5.220;2023-07-24T03:55:43;64413.28;;;-144.50;100.00
48874;BME280;66155;46.204;5.220;2023-07-24T04:01:42;64413.28;;;-144.50;100.00
48874;BME280;66155;46.204;5.220;2023-07-24T04:07:42;64413.28;;;-144.50;100.00
48874;BME280;66155;46.204;5.220;2023-07-24T04:13:41;64413.28;;;-144.50;100.00
48874;BME280;66155;46.204;5.220;2023-07-24T04:19:40;64413.28;;;-144.50;100.00
48874;BME280;66155;46.204;5.220;2023-07-24T04:25:38;64413.28;;;-144.50;100.00
48874;BME280;66155;46.204;5.220;2023-07-24T04:31:37;64413.28;;;-144.50;100.00
48874;BME280;66155;46.204;5.220;2023-07-24T04:37:36;64413.28;;;-144.50;100.00
48874;BME280;66155;46.204;5.220;2023-07-24T04:43:35;64413.28;;;-144.50;100.00
48874;BME280;66155;46.204;5.220;2023-07-24T04:49:34;64413.28;;;-144.50;100.00
48874;BME280;66155;46.204;5.220;2023-07-24T04:55:33;64413.28;;;-144.50;100.00
48874;BME280;66155;46.204;5.220;2023-07-24T05:01:32;64413.28;;;-144.50;100.00
48874;BME280;66155;46.204;5.220;2023-07-24T05:07:31;64413.28;;;-144.50;100.00
48874;BME280;66155;46.204;5.220;2023-07-24T05:13:30;64413.28;;;-144.50;100.00
48874;BME280;66155;46.204;5.220;2023-07-24T05:19:29;64413.28;;;-144.50;100.00
48874;BME280;66155;46.204;5.220;2023-07-24T05:25:28;64413.28;;;-144.50;100.00
48874;BME280;66155;46.204;5.220;2023-07-24T05:31:27;64413.28;;;-144.50;100.00
48874;BME280;66155;46.204;5.220;2023-07-24T05:37:26;64413.28;;;-144.50;100.00
48874;BME280;66155;46.204;5.220;2023-07-24T05:43:26;64413.28;;;-144.50;100.00
48874;BME280;66155;46.204;5.220;2023-07-24T05:49:25;64413.28;;;-144.50;100.00
48874;BME280;66155;46.204;5.220;2023-07-24T05:55:25;64413.28;;;-144.50;100.00
48874;BME280;66155;46.204;5.220;2023-07-24T06:01:24;64413.28;;;-144.50;100.00
48874;BME280;66155;46.204;5.220;2023-07-24T06:07:22;64413.28;;;-144.50;100.00
48874;BME280;66155;46.204;5.220;2023-07-24T06:13:22;64413.28;;;-144.50;100.00
48874;BME280;66155;46.204;5.220;2023-07-24T06:19:21;64413.28;;;-144.50;100.00
48874;BME280;66155;46.204;5.220;2023-07-24T06:25:20;64413.28;;;-144.50;100.00
48874;BME280;66155;46.204;5.220;2023-07-24T06:31:19;64413.28;;;-144.50;100.00
48874;BME280;66155;46.204;5.220;2023-07-24T06:37:18;64413.28;;;-144.50;100.00
48874;BME280;66155;46.204;5.220;2023-07-24T06:43:17;64413.28;;;-144.50;100.00
48874;BME280;66155;46.204;5.220;2023-07-24T06:49:16;64413.28;;;-144.50;100.00
48874;BME280;66155;46.204;5.220;2023-07-24T06:55:14;64413.28;;;-144.50;100.00
48874;BME280;66155;46.204;5.220;2023-07-24T07:01:13;64413.28;;;-144.50;100.00
48874;BME280;66155;46.204;5.220;2023-07-24T07:07:12;64413.28;;;-144.50;100.00
48874;BME280;66155;46.204;5.220;2023-07-24T07:13:11;64413.28;;;-144.50;100.00
48874;BME280;66155;46.204;5.220;2023-07-24T07:19:10;64413.28;;;-144.50;100.00
48874;BME280;66155;46.204;5.220;2023-07-24T07:25:09;64413.28;;;-144.50;100.00
48874;BME280;66155;46.204;5.220;2023-07-24T07:31:08;64413.28;;;-144.50;100.00
48874;BME280;66155;46.204;5.220;2023-07-24T07:37:07;64413.28;;;-144.50;100.00
48874;BME280;66155;46.204;5.220;2023-07-24T07:43:06;64413.28;;;-144.50;100.00
48874;BME280;66155;46.204;5.220;2023-07-24T07:49:05;64413.28;;;-144.50;100.00
48874;BME280;66155;46.204;5.220;2023-07-24T07:55:05;64413.28;;;-144.50;100.00
48874;BME280;66155;46.204;5.220;2023-07-24T08:01:07;64413.28;;;-144.50;100.00
48874;BME280;66155;46.204;5.220;2023-07-24T08:07:06;64413.28;;;-144.50;100.00
48874;BME280;66155;46.204;5.220;2023-07-24T08:13:05;64413.28;;;-144.50;100.00
48874;BME280;66155;46.204;5.220;2023-07-24T08:19:06;64413.28;;;-144.50;100.00
48874;BME280;66155;46.204;5.220;2023-07-24T08:25:05;64413.28;;;-144.50;100.00
48874;BME280;66155;46.204;5.220;2023-07-24T08:31:05;64413.28;;;-144.50;100.00
48874;BME280;66155;46.204;5.220;2023-07-24T08:37:05;64413.28;;;-144.50;100.00
48874;BME280;66155;46.204;5.220;2023-07-24T08:43:11;64413.28;;;-144.50;100.00
48874;BME280;66155;46.204;5.220;2023-07-24T08:49:11;64413.28;;;-144.50;100.00
48874;BME280;66155;46.204;5.220;2023-07-24T08:55:11;64413.28;;;-144.50;100.00
48874;BME280;66155;46.204;5.220;2023-07-24T09:01:11;64413.28;;;-144.50;100.00
48874;BME280;66155;46.204;5.220;2023-07-24T09:07:10;64413.28;;;-144.50;100.00
48874;BME280;66155;46.204;5.220;2023-07-24T09:13:13;64413.28;;;-144.50;100.00
48874;BME280;66155;46.204;5.220;2023-07-24T09:19:16;64413.28;;;-144.50;100.00
48874;BME280;66155;46.204;5.220;2023-07-24T09:25:15;64413.28;;;-144.50;100.00
48874;BME280;66155;46.204;5.220;2023-07-24T09:31:14;64413.28;;;-144.50;100.00
48874;BME280;66155;46.204;5.220;2023-07-24T09:43:35;64413.28;;;-144.50;100.00
48874;BME280;66155;46.204;5.220;2023-07-24T09:49:34;64413.28;;;-144.50;100.00
48874;BME280;66155;46.204;5.220;2023-07-24T09:55:39;64413.28;;;-144.50;100.00
48874;BME280;66155;46.204;5.220;2023-07-24T10:01:43;64413.28;;;-144.50;100.00
48874;BME280;66155;46.204;5.220;2023-07-24T10:07:42;64413.28;;;-144.50;100.00
48874;BME280;66155;46.204;5.220;2023-07-24T10:13:42;64413.28;;;-144.50;100.00
48874;BME280;66155;46.204;5.220;2023-07-24T10:19:42;64413.28;;;-144.50;100.00
48874;BME280;66155;46.204;5.220;2023-07-24T10:25:45;64413.28;;;-144.50;100.00
48874;BME280;66155;46.204;5.220;2023-07-24T10:31:53;64413.28;;;-144.50;100.00
48874;BME280;66155;46.204;5.220;2023-07-24T10:38:01;64413.28;;;-144.50;100.00
48874;BME280;66155;46.204;5.220;2023-07-24T10:44:05;64413.28;;;-144.50;100.00
48874;BME280;66155;46.204;5.220;2023-07-24T10:50:04;64413.28;;;-144.50;100.00
48874;BME280;66155;46.204;5.220;2023-07-24T10:56:04;64413.28;;;-144.50;100.00
48874;BME280;66155;46.204;5.220;2023-07-24T11:02:05;64413.28;;;-144.50;100.00
48874;BME280;66155;46.204;5.220;2023-07-24T11:08:08;64413.28;;;-144.50;100.00
48874;BME280;66155;46.204;5.220;2023-07-24T11:14:13;64413.28;;;-144.50;100.00
48874;BME280;66155;46.204;5.220;2023-07-24T11:20:20;64413.28;;;-144.50;100.00
48874;BME280;66155;46.204;5.220;2023-07-24T11:26:23;64413.28;;;-144.50;100.00
48874;BME280;66155;46.204;5.220;2023-07-24T11:32:22;64413.28;;;-144.50;100.00
48874;BME280;66155;46.204;5.220;2023-07-24T11:38:21;64413.28;;;-144.50;100.00
48874;BME280;66155;46.204;5.220;2023-07-24T11:44:25;64413.28;;;-144.50;100.00
48874;BME280;66155;46.204;5.220;2023-07-24T11:50:24;64413.28;;;-144.50;100.00
48874;BME280;66155;46.204;5.220;2023-07-24T11:56:30;64413.28;;;-144.50;100.00
48874;BME280;66155;46.204;5.220;2023-07-24T12:02:29;64413.28;;;-144.50;100.00
48874;BME280;66155;46.204;5.220;2023-07-24T12:08:33;64413.28;;;-144.50;100.00
48874;BME280;66155;46.204;5.220;2023-07-24T12:14:32;64413.28;;;-144.50;100.00
48874;BME280;66155;46.204;5.220;2023-07-24T12:20:31;64413.28;;;-144.50;100.00
48874;BME280;66155;46.204;5.220;2023-07-24T12:26:30;64413.28;;;-144.50;100.00
48874;BME280;66155;46.204;5.220;2023-07-24T12:32:29;64413.28;;;-144.50;100.00
48874;BME280;66155;46.204;5.220;2023-07-24T12:38:28;64413.28;;;-144.50;100.00
48874;BME280;66155;46.204;5.220;2023-07-24T12:44:27;64413.28;;;-144.50;100.00
48874;BME280;66155;46.204;5.220;2023-07-24T12:50:26;64413.28;;;-144.50;100.00
48874;BME280;66155;46.204;5.220;2023-07-24T12:56:25;64413.28;;;-144.50;100.00
48874;BME280;66155;46.204;5.220;2023-07-24T13:02:24;64413.28;;;-144.50;100.00
48874;BME280;66155;46.204;5.220;2023-07-24T13:08:23;64413.28;;;-144.50;100.00
48874;BME280;66155;46.204;5.220;2023-07-24T13:14:22;64413.28;;;-144.50;100.00
48874;BME280;66155;46.204;5.220;2023-07-24T13:20:22;64413.28;;;-144.50;100.00
48874;BME280;66155;46.204;5.220;2023-07-24T13:26:21;64413.28;;;-144.50;100.00
48874;BME280;66155;46.204;5.220;2023-07-24T13:32:20;64413.28;;;-144.50;100.00
48874;BME280;66155;46.204;5.220;2023-07-24T13:38:19;64413.28;;;-144.50;100.00
48874;BME280;66155;46.204;5.220;2023-07-24T13:44:18;64413.28;;;-144.50;100.00
48874;BME280;66155;46.204;5.220;2023-07-24T13:50:17;64413.28;;;-144.50;100.00
48874;BME280;66155;46.204;5.220;2023-07-24T13:56:16;64413.28;;;-144.50;100.00
48874;BME280;66155;46.204;5.220;2023-07-24T14:02:15;64413.28;;;-144.50;100.00
48874;BME280;66155;46.204;5.220;2023-07-24T14:08:14;64413.28;;;-144.50;100.00
48874;BME280;66155;46.204;5.220;2023-07-24T14:14:15;64413.28;;;-144.50;100.00
48874;BME280;66155;46.204;5.220;2023-07-24T14:20:14;64413.28;;;-144.50;100.00
48874;BME280;66155;46.204;5.220;2023-07-24T14:26:13;64413.28;;;-144.50;100.00
48874;BME280;66155;46.204;5.220;2023-07-24T14:32:12;64413.28;;;-144.50;100.00
48874;BME280;66155;46.204;5.220;2023-07-24T14:38:11;64413.28;;;-144.50;100.00
48874;BME280;66155;46.204;5.220;2023-07-24T14:44:09;64413.28;;;-144.50;100.00
48874;BME280;66155;46.204;5.220;2023-07-24T14:50:09;64413.28;;;-144.50;100.00
48874;BME280;66155;46.204;5.220;2023-07-24T14:55:20;64413.28;;;-144.50;100.00
48874;BME280;66155;46.204;5.220;2023-07-24T15:00:20;64413.28;;;-144.50;100.00
48874;BME280;66155;46.204;5.220;2023-07-24T15:05:21;64413.28;;;-144.50;100.00
48874;BME280;66155;46.204;5.220;2023-07-24T15:10:21;64413.28;;;-144.50;100.00
48874;BME280;66155;46.204;5.220;2023-07-24T15:15:22;64413.28;;;-144.50;100.00
48874;BME280;66155;46.204;5.220;2023-07-24T15:20:22;64413.28;;;-144.50;100.00
48874;BME280;66155;46.204;5.220;2023-07-24T15:25:23;64413.28;;;-144.50;100.00
48874;BME280;66155;46.204;5.220;2023-07-24T15:30:24;64413.28;;;-144.50;100.00
48874;BME280;66155;46.204;5.220;2023-07-24T15:35:24;64413.28;;;-144.50;100.00
48874;BME280;66155;46.204;5.220;2023-07-24T15:40:25;64413.28;;;-144.50;100.00
48874;BME280;66155;46.204;5.220;2023-07-24T15:45:25;64413.28;;;-144.50;100.00
48874;BME280;66155;46.204;5.220;2023-07-24T15:50:26;64413.28;;;-144.50;100.00
48874;BME280;66155;46.204;5.220;2023-07-24T15:55:29;64413.28;;;-144.50;100.00
48874;BME280;66155;46.204;5.220;2023-07-24T16:00:29;64413.28;;;-144.50;100.00
48874;BME280;66155;46.204;5.220;2023-07-24T16:05:30;64413.28;;;-144.50;100.00
48874;BME280;66155;46.204;5.220;2023-07-24T16:10:32;64413.28;;;-144.50;100.00
48874;BME280;66155;46.204;5.220;2023-07-24T16:15:33;64413.28;;;-144.50;100.00
48874;BME280;66155;46.204;5.220;2023-07-24T16:20:33;64413.28;;;-144.50;100.00
48874;BME280;66155;46.204;5.220;2023-07-24T16:25:34;64413.28;;;-144.50;100.00
48874;BME280;66155;46.204;5.220;2023-07-24T16:30:34;64413.28;;;-144.50;100.00
48874;BME280;66155;46.204;5.220;2023-07-24T16:35:35;64413.28;;;-144.50;100.00
48874;BME280;66155;46.204;5.220;2023-07-24T16:40:35;64413.28;;;-144.50;100.00
48874;BME280;66155;46.204;5.220;2023-07-24T16:45:36;64413.28;;;-144.50;100.00
48874;BME280;66155;46.204;5.220;2023-07-24T16:50:36;64413.28;;;-144.50;100.00
48874;BME280;66155;46.204;5.220;2023-07-24T16:55:37;64413.28;;;-144.50;100.00
48874;BME280;66155;46.204;5.220;2023-07-24T17:00:37;64413.28;;;-144.50;100.00
48874;BME280;66155;46.204;5.220;2023-07-24T17:05:38;64413.28;;;-144.50;100.00
48874;BME280;66155;46.204;5.220;2023-07-24T17:10:46;64413.28;;;-144.50;100.00
48874;BME280;66155;46.204;5.220;2023-07-24T17:15:47;64413.28;;;-144.50;100.00
48874;BME280;66155;46.204;5.220;2023-07-24T17:20:48;64413.28;;;-144.50;100.00
48874;BME280;66155;46.204;5.220;2023-07-24T17:25:50;64413.28;;;-144.50;100.00
48874;BME280;66155;46.204;5.220;2023-07-24T17:30:50;64413.28;;;-144.50;100.00
48874;BME280;66155;46.204;5.220;2023-07-24T17:35:51;64413.28;;;-144.50;100.00
48874;BME280;66155;46.204;5.220;2023-07-24T17:40:51;64413.28;;;-144.50;100.00
48874;BME280;66155;46.204;5.220;2023-07-24T17:45:52;64413.28;;;-144.50;100.00
48874;BME280;66155;46.204;5.220;2023-07-24T17:50:52;64413.28;;;-144.50;100.00
48874;BME280;66155;46.204;5.220;2023-07-24T17:55:53;64413.28;;;-144.50;100.00
48874;BME280;66155;46.204;5.220;2023-07-24T18:00:54;64413.28;;;-144.50;100.00
48874;BME280;66155;46.204;5.220;2023-07-24T18:05:54;64413.28;;;-144.50;100.00
48874;BME280;66155;46.204;5.220;2023-07-24T18:10:58;64413.28;;;-144.50;100.00
48874;BME280;66155;46.204;5.220;2023-07-24T18:15:59;64413.28;;;-144.50;100.00
48874;BME280;66155;46.204;5.220;2023-07-24T18:20:59;64413.28;;;-144.50;100.00
48874;BME280;66155;46.204;5.220;2023-07-24T18:26:03;64413.28;;;-144.50;100.00
48874;BME280;66155;46.204;5.220;2023-07-24T18:31:04;64413.28;;;-144.50;100.00
48874;BME280;66155;46.204;5.220;2023-07-24T18:36:04;64413.28;;;-144.50;100.00
48874;BME280;66155;46.204;5.220;2023-07-24T18:41:05;64413.28;;;-144.50;100.00
48874;BME280;66155;46.204;5.220;2023-07-24T18:46:05;64413.28;;;-144.50;100.00
48874;BME280;66155;46.204;5.220;2023-07-24T18:51:06;64413.28;;;-144.50;100.00
48874;BME280;66155;46.204;5.220;2023-07-24T18:56:08;64413.28;;;-144.50;100.00
48874;BME280;66155;46.204;5.220;2023-07-24T19:01:09;64413.28;;;-144.50;100.00
48874;BME280;66155;46.204;5.220;2023-07-24T19:06:10;64413.28;;;-144.50;100.00
48874;BME280;66155;46.204;5.220;2023-07-24T19:11:10;64413.28;;;-144.50;100.00
48874;BME280;66155;46.204;5.220;2023-07-24T19:16:11;64413.28;;;-144.50;100.00
48874;BME280;66155;46.204;5.220;2023-07-24T19:21:11;64413.28;;;-144.50;100.00
48874;BME280;66155;46.204;5.220;2023-07-24T19:26:13;64413.28;;;-144.50;100.00
48874;BME280;66155;46.204;5.220;2023-07-24T19:31:13;64413.28;;;-144.50;100.00
48874;BME280;66155;46.204;5.220;2023-07-24T19:36:14;64413.28;;;-144.50;100.00
48874;BME280;66155;46.204;5.220;2023-07-24T19:41:14;64413.28;;;-144.50;100.00
48874;BME280;66155;46.204;5.220;2023-07-24T19:46:15;64413.28;;;-144.50;100.00
48874;BME280;66155;46.204;5.220;2023-07-24T19:51:15;64413.28;;;-144.50;100.00
48874;BME280;66155;46.204;5.220;2023-07-24T19:56:16;64413.28;;;-144.50;100.00
48874;BME280;66155;46.204;5.220;2023-07-24T20:01:16;64413.28;;;-144.50;100.00
48874;BME280;66155;46.204;5.220;2023-07-24T20:06:17;64413.28;;;-144.50;100.00
48874;BME280;66155;46.204;5.220;2023-07-24T20:11:17;64413.28;;;-144.50;100.00
48874;BME280;66155;46.204;5.220;2023-07-24T20:16:18;64413.28;;;-144.50;100.00
48874;BME280;66155;46.204;5.220;2023-07-24T20:21:19;64413.28;;;-144.50;100.00
48874;BME280;66155;46.204;5.220;2023-07-24T20:26:20;64413.28;;;-144.50;100.00
48874;BME280;66155;46.204;5.220;2023-07-24T20:31:21;64413.28;;;-144.50;100.00
48874;BME280;66155;46.204;5.220;2023-07-24T20:36:21;64413.28;;;-144.50;100.00
48874;BME280;66155;46.204;5.220;2023-07-24T20:41:22;64413.28;;;-144.50;100.00
48874;BME280;66155;46.204;5.220;2023-07-24T20:46:22;64413.28;;;-144.50;100.00
48874;BME280;66155;46.204;5.220;2023-07-24T20:51:23;64413.28;;;-144.50;100.00
48874;BME280;66155;46.204;5.220;2023-07-24T20:56:23;64413.28;;;-144.50;100.00
48874;BME280;66155;46.204;5.220;2023-07-24T21:01:24;64413.28;;;-144.50;100.00
48874;BME280;66155;46.204;5.220;2023-07-24T21:06:25;64413.28;;;-144.50;100.00
48874;BME280;66155;46.204;5.220;2023-07-24T21:11:26;64413.28;;;-144.50;100.00
48874;BME280;66155;46.204;5.220;2023-07-24T21:16:26;64413.28;;;-144.50;100.00
48874;BME280;66155;46.204;5.220;2023-07-24T21:21:27;64413.28;;;-144.50;100.00
48874;BME280;66155;46.204;5.220;2023-07-24T21:26:27;64413.28;;;-144.50;100.00
48874;BME280;66155;46.204;5.220;2023-07-24T21:31:28;64413.28;;;-144.50;100.00
48874;BME280;66155;46.204;5.220;2023-07-24T21:36:29;64413.28;;;-144.50;100.00
48874;BME280;66155;46.204;5.220;2023-07-24T21:41:29;64413.28;;;-144.50;100.00
48874;BME280;66155;46.204;5.220;2023-07-24T21:46:30;64413.28;;;-144.50;100.00
48874;BME280;66155;46.204;5.220;2023-07-24T21:51:30;64413.28;;;-144.50;100.00
48874;BME280;66155;46.204;5.220;2023-07-24T21:56:31;64413.28;;;-144.50;100.00
48874;BME280;66155;46.204;5.220;2023-07-24T22:01:31;64413.28;;;-144.50;100.00
48874;BME280;66155;46.204;5.220;2023-07-24T22:06:32;64413.28;;;-144.50;100.00
48874;BME280;66155;46.204;5.220;2023-07-24T22:11:32;64413.28;;;-144.50;100.00
48874;BME280;66155;46.204;5.220;2023-07-24T22:16:35;64413.28;;;-144.50;100.00
48874;BME280;66155;46.204;5.220;2023-07-24T22:21:36;64413.28;;;-144.50;100.00
48874;BME280;66155;46.204;5.220;2023-07-24T22:26:36;64413.28;;;-144.50;100.00
48874;BME280;66155;46.204;5.220;2023-07-24T22:31:36;64413.28;;;-144.50;100.00
48874;BME280;66155;46.204;5.220;2023-07-24T22:36:37;64413.28;;;-144.50;100.00
48874;BME280;66155;46.204;5.220;2023-07-24T22:41:43;64413.28;;;-144.50;100.00
48874;BME280;66155;46.204;5.220;2023-07-24T22:46:43;64413.28;;;-144.50;100.00
48874;BME280;66155;46.204;5.220;2023-07-24T22:51:44;64413.28;;;-144.50;100.00
48874;BME280;66155;46.204;5.220;2023-07-24T22:56:44;64413.28;;;-144.50;100.00
48874;BME280;66155;46.204;5.220;2023-07-24T23:01:45;64413.28;;;-144.50;100.00
48874;BME280;66155;46.204;5.220;2023-07-24T23:06:46;64413.28;;;-144.50;100.00
48874;BME280;66155;46.204;5.220;2023-07-24T23:11:46;64413.28;;;-144.50;100.00
48874;BME280;66155;46.204;5.220;2023-07-24T23:16:46;64413.28;;;-144.50;100.00
48874;BME280;66155;46.204;5.220;2023-07-24T23:21:47;64413.28;;;-144.50;100.00
48874;BME280;66155;46.204;5.220;2023-07-24T23:26:47;64413.28;;;-144.50;100.00
48874;BME280;66155;46.204;5.220;2023-07-24T23:31:48;64413.28;;;-144.50;100.00
48874;BME280;66155;46.204;5.220;2023-07-24T23:36:48;64413.28;;;-144.50;100.00
48874;BME280;66155;46.204;5.220;2023-07-24T23:41:51;64413.28;;;-144.50;100.00
48874;BME280;66155;46.204;5.220;2023-07-24T23:46:53;64413.28;;;-144.50;100.00
48874;BME280;66155;46.204;5.220;2023-07-24T23:51:53;64413.28;;;-144.50;100.00
48874;BME280;66155;46.204;5.220;2023-07-24T23:56:53;64413.28;;;-144.50;100.00
